createdAt,value
2022-12-12T00:01:29.037Z,37.70
2022-12-12T00:03:36.567Z,38.70
2022-12-12T00:05:43.811Z,38.38
2022-12-12T00:07:51.109Z,41.05
2022-12-12T00:09:58.226Z,37.72
2022-12-12T00:12:05.509Z,43.05
2022-12-12T00:14:14.277Z,42.35
2022-12-12T00:16:21.538Z,41.00
2022-12-12T00:18:29.048Z,36.45
2022-12-12T00:20:36.487Z,38.28
2022-12-12T00:22:43.517Z,29.20
2022-12-12T00:24:50.851Z,34.03
2022-12-12T00:26:57.827Z,28.05
2022-12-12T00:29:06.242Z,31.70
2022-12-12T00:31:15.031Z,27.77
2022-12-12T00:33:22.548Z,22.67
2022-12-12T00:35:29.524Z,19.17
2022-12-12T00:37:36.707Z,19.83
2022-12-12T00:39:43.734Z,17.02
2022-12-12T00:41:50.968Z,18.63
2022-12-12T00:43:57.840Z,17.27
2022-12-12T00:46:05.729Z,17.83
2022-12-12T00:48:14.456Z,18.38
2022-12-12T00:50:21.952Z,16.83
2022-12-12T00:52:28.923Z,21.98
2022-12-12T00:54:36.461Z,19.23
2022-12-12T00:56:43.900Z,19.38
2022-12-12T00:58:51.337Z,19.27
2022-12-12T01:00:58.265Z,18.35
2022-12-12T01:03:05.787Z,20.50
2022-12-12T01:05:15.269Z,21.05
2022-12-12T01:07:22.625Z,21.13
2022-12-12T01:09:29.549Z,20.30
2022-12-12T01:11:36.782Z,19.08
2022-12-12T01:13:45.601Z,20.35
2022-12-12T01:15:52.868Z,17.13
2022-12-12T01:17:59.913Z,22.13
2022-12-12T01:20:07.856Z,21.40
2022-12-12T01:22:16.580Z,18.67
2022-12-12T01:24:23.764Z,18.92
2022-12-12T01:26:30.844Z,20.55
2022-12-12T01:28:38.588Z,18.67
2022-12-12T01:30:45.667Z,18.75
2022-12-12T01:32:53.258Z,17.52
2022-12-12T01:35:00.236Z,18.02
2022-12-12T01:37:08.084Z,16.58
2022-12-12T01:39:16.748Z,18.40
2022-12-12T01:41:24.853Z,18.25
2022-12-12T01:43:33.517Z,19.52
2022-12-12T01:46:25.817Z,16.77
2022-12-12T01:48:37.954Z,19.08
2022-12-12T01:50:46.416Z,19.13
2022-12-12T01:52:54.007Z,19.52
2022-12-12T01:55:05.853Z,18.35
2022-12-12T01:57:16.412Z,17.98
2022-12-12T01:59:26.099Z,19.42
2022-12-12T02:01:33.230Z,20.20
2022-12-12T02:03:40.923Z,21.45
2022-12-12T02:05:52.202Z,19.98
2022-12-12T02:08:02.816Z,18.35
2022-12-12T02:10:11.991Z,18.00
2022-12-12T02:12:19.633Z,20.35
2022-12-12T02:14:30.501Z,19.67
2022-12-12T02:17:01.850Z,17.73
2022-12-12T02:19:21.147Z,14.75
2022-12-12T02:21:34.696Z,15.25
2022-12-12T02:24:26.335Z,16.42
2022-12-12T02:27:07.088Z,15.48
2022-12-12T02:29:50.779Z,16.50
2022-12-12T02:32:06.560Z,18.77
2022-12-12T02:34:22.035Z,17.23
2022-12-12T02:36:38.331Z,18.63
2022-12-12T02:38:55.857Z,17.00
2022-12-12T02:41:16.248Z,14.95
2022-12-12T02:43:30.033Z,15.55
2022-12-12T02:45:41.775Z,17.05
2022-12-12T02:47:55.659Z,18.65
2022-12-12T02:50:08.167Z,14.98
2022-12-12T02:52:15.810Z,15.48
2022-12-12T02:54:26.024Z,15.32
2022-12-12T02:56:49.578Z,14.85
2022-12-12T02:58:56.655Z,14.55
2022-12-12T03:01:20.786Z,14.55
2022-12-12T03:03:52.339Z,15.77
2022-12-12T03:06:35.088Z,18.52
2022-12-12T03:08:56.011Z,16.67
2022-12-12T03:11:05.185Z,15.00
2022-12-12T03:13:21.173Z,14.23
2022-12-12T03:15:33.527Z,15.50
2022-12-12T03:17:47.517Z,15.48
2022-12-12T03:20:03.812Z,17.70
2022-12-12T03:22:19.698Z,15.15
2022-12-12T03:24:31.845Z,18.02
2022-12-12T03:26:48.347Z,15.10
2022-12-12T03:29:02.029Z,14.43
2022-12-12T03:31:12.972Z,14.65
2022-12-12T03:33:26.687Z,14.38
2022-12-12T03:35:39.292Z,15.10
2022-12-12T03:37:51.442Z,14.77
2022-12-12T03:40:02.464Z,15.55
2022-12-12T03:42:13.384Z,14.35
2022-12-12T03:44:24.301Z,13.95
2022-12-12T03:46:34.605Z,12.27
2022-12-12T03:48:46.601Z,14.63
